sensor_id;sensor_type;location;lat;lon;timestamp;temperature;humidity
2523;DHT22;1272;53.332;9.860;2022-11-15T00:00:54;5.60;99.90
2523;DHT22;1272;53.332;9.860;2022-11-15T00:03:25;5.60;99.90
2523;DHT22;1272;53.332;9.860;2022-11-15T00:05:51;5.70;99.90
2523;DHT22;1272;53.332;9.860;2022-11-15T00:08:19;5.70;99.90
2523;DHT22;1272;53.332;9.860;2022-11-15T00:10:56;5.80;99.90
2523;DHT22;1272;53.332;9.860;2022-11-15T00:13:22;5.80;99.90
2523;DHT22;1272;53.332;9.860;2022-11-15T00:15:48;5.80;99.90
2523;DHT22;1272;53.332;9.860;2022-11-15T00:18:14;5.80;99.90
2523;DHT22;1272;53.332;9.860;2022-11-15T00:20:40;5.90;99.90
2523;DHT22;1272;53.332;9.860;2022-11-15T00:23:06;5.90;99.90
2523;DHT22;1272;53.332;9.860;2022-11-15T00:25:32;5.90;99.90
2523;DHT22;1272;53.332;9.860;2022-11-15T00:27:58;5.90;99.90
2523;DHT22;1272;53.332;9.860;2022-11-15T00:30:25;5.90;99.90
2523;DHT22;1272;53.332;9.860;2022-11-15T00:32:51;5.90;99.90
2523;DHT22;1272;53.332;9.860;2022-11-15T00:35:17;5.80;99.90
2523;DHT22;1272;53.332;9.860;2022-11-15T00:37:43;5.70;99.90
2523;DHT22;1272;53.332;9.860;2022-11-15T00:40:09;5.70;99.90
2523;DHT22;1272;53.332;9.860;2022-11-15T00:42:35;5.60;99.90
2523;DHT22;1272;53.332;9.860;2022-11-15T00:45:01;5.50;99.90
2523;DHT22;1272;53.332;9.860;2022-11-15T00:47:27;5.50;99.90
2523;DHT22;1272;53.332;9.860;2022-11-15T00:49:53;5.40;99.90
2523;DHT22;1272;53.332;9.860;2022-11-15T00:52:18;5.40;99.90
2523;DHT22;1272;53.332;9.860;2022-11-15T00:54:44;5.30;99.90
2523;DHT22;1272;53.332;9.860;2022-11-15T00:57:10;5.20;99.90
2523;DHT22;1272;53.332;9.860;2022-11-15T00:59:35;5.10;99.90
2523;DHT22;1272;53.332;9.860;2022-11-15T01:02:01;5.10;99.90
2523;DHT22;1272;53.332;9.860;2022-11-15T01:04:27;5.10;99.90
2523;DHT22;1272;53.332;9.860;2022-11-15T01:06:53;5.00;99.90
2523;DHT22;1272;53.332;9.860;2022-11-15T01:09:18;5.00;99.90
2523;DHT22;1272;53.332;9.860;2022-11-15T01:11:44;4.90;99.90
2523;DHT22;1272;53.332;9.860;2022-11-15T01:14:10;4.90;99.90
2523;DHT22;1272;53.332;9.860;2022-11-15T01:16:35;4.80;99.90
2523;DHT22;1272;53.332;9.860;2022-11-15T01:19:01;4.80;99.90
2523;DHT22;1272;53.332;9.860;2022-11-15T01:21:27;4.80;99.90
2523;DHT22;1272;53.332;9.860;2022-11-15T01:23:57;4.80;99.90
2523;DHT22;1272;53.332;9.860;2022-11-15T01:26:24;4.70;99.90
2523;DHT22;1272;53.332;9.860;2022-11-15T01:28:50;4.70;99.90
2523;DHT22;1272;53.332;9.860;2022-11-15T01:31:20;4.70;99.90
2523;DHT22;1272;53.332;9.860;2022-11-15T01:33:46;4.60;99.90
2523;DHT22;1272;53.332;9.860;2022-11-15T01:36:21;4.60;99.90
2523;DHT22;1272;53.332;9.860;2022-11-15T01:38:52;4.60;99.90
2523;DHT22;1272;53.332;9.860;2022-11-15T01:41:22;4.60;99.90
2523;DHT22;1272;53.332;9.860;2022-11-15T01:43:56;4.50;99.90
2523;DHT22;1272;53.332;9.860;2022-11-15T01:48:54;4.50;99.90
2523;DHT22;1272;53.332;9.860;2022-11-15T01:51:24;4.40;99.90
2523;DHT22;1272;53.332;9.860;2022-11-15T01:53:55;4.40;99.90
2523;DHT22;1272;53.332;9.860;2022-11-15T01:56:25;4.40;99.90
2523;DHT22;1272;53.332;9.860;2022-11-15T01:58:55;4.30;99.90
2523;DHT22;1272;53.332;9.860;2022-11-15T02:01:22;4.30;99.90
2523;DHT22;1272;53.332;9.860;2022-11-15T02:03:54;4.20;99.90
2523;DHT22;1272;53.332;9.860;2022-11-15T02:06:22;4.20;99.90
2523;DHT22;1272;53.332;9.860;2022-11-15T02:08:48;4.10;99.90
2523;DHT22;1272;53.332;9.860;2022-11-15T02:11:14;4.10;99.90
2523;DHT22;1272;53.332;9.860;2022-11-15T02:13:40;4.00;99.90
2523;DHT22;1272;53.332;9.860;2022-11-15T02:16:12;4.00;99.90
2523;DHT22;1272;53.332;9.860;2022-11-15T02:18:52;3.90;99.90
2523;DHT22;1272;53.332;9.860;2022-11-15T02:32:18;3.70;99.90
2523;DHT22;1272;53.332;9.860;2022-11-15T02:34:52;3.70;99.90
2523;DHT22;1272;53.332;9.860;2022-11-15T02:37:55;3.60;99.90
2523;DHT22;1272;53.332;9.860;2022-11-15T02:40:32;3.60;99.90
2523;DHT22;1272;53.332;9.860;2022-11-15T02:43:10;3.60;99.90
2523;DHT22;1272;53.332;9.860;2022-11-15T02:46:10;3.60;99.90
2523;DHT22;1272;53.332;9.860;2022-11-15T02:48:39;3.50;99.90
2523;DHT22;1272;53.332;9.860;2022-11-15T02:51:05;3.50;99.90
2523;DHT22;1272;53.332;9.860;2022-11-15T02:53:31;3.40;99.90
2523;DHT22;1272;53.332;9.860;2022-11-15T02:55:57;3.40;99.90
2523;DHT22;1272;53.332;9.860;2022-11-15T02:58:34;3.30;99.90
2523;DHT22;1272;53.332;9.860;2022-11-15T03:04:02;3.30;99.90
2523;DHT22;1272;53.332;9.860;2022-11-15T03:06:44;3.30;99.90
2523;DHT22;1272;53.332;9.860;2022-11-15T03:09:33;3.30;99.90
2523;DHT22;1272;53.332;9.860;2022-11-15T03:12:14;3.20;99.90
2523;DHT22;1272;53.332;9.860;2022-11-15T03:19:51;3.20;99.90
2523;DHT22;1272;53.332;9.860;2022-11-15T03:22:21;3.20;99.90
2523;DHT22;1272;53.332;9.860;2022-11-15T03:24:53;3.20;99.90
2523;DHT22;1272;53.332;9.860;2022-11-15T03:27:22;3.20;99.90
2523;DHT22;1272;53.332;9.860;2022-11-15T03:29:57;3.20;99.90
2523;DHT22;1272;53.332;9.860;2022-11-15T03:32:30;3.10;99.90
2523;DHT22;1272;53.332;9.860;2022-11-15T03:37:43;3.10;99.90
2523;DHT22;1272;53.332;9.860;2022-11-15T03:40:10;3.20;99.90
2523;DHT22;1272;53.332;9.860;2022-11-15T03:42:46;3.20;99.90
2523;DHT22;1272;53.332;9.860;2022-11-15T03:45:23;3.30;99.90
2523;DHT22;1272;53.332;9.860;2022-11-15T03:48:22;3.40;99.90
2523;DHT22;1272;53.332;9.860;2022-11-15T03:50:49;3.50;99.90
2523;DHT22;1272;53.332;9.860;2022-11-15T03:53:16;3.60;99.90
2523;DHT22;1272;53.332;9.860;2022-11-15T03:55:41;3.70;99.90
2523;DHT22;1272;53.332;9.860;2022-11-15T03:58:07;3.80;99.90
2523;DHT22;1272;53.332;9.860;2022-11-15T04:00:33;3.90;99.90
2523;DHT22;1272;53.332;9.860;2022-11-15T04:02:58;4.00;99.90
2523;DHT22;1272;53.332;9.860;2022-11-15T04:05:24;4.10;99.90
2523;DHT22;1272;53.332;9.860;2022-11-15T04:07:50;4.10;99.90
2523;DHT22;1272;53.332;9.860;2022-11-15T04:10:16;4.20;99.90
2523;DHT22;1272;53.332;9.860;2022-11-15T04:12:43;4.30;99.90
2523;DHT22;1272;53.332;9.860;2022-11-15T04:15:14;4.30;99.90
2523;DHT22;1272;53.332;9.860;2022-11-15T04:17:42;4.40;99.90
2523;DHT22;1272;53.332;9.860;2022-11-15T04:20:11;4.40;99.90
2523;DHT22;1272;53.332;9.860;2022-11-15T04:22:58;4.50;99.90
2523;DHT22;1272;53.332;9.860;2022-11-15T04:25:43;4.60;99.90
2523;DHT22;1272;53.332;9.860;2022-11-15T04:28:09;4.70;99.90
2523;DHT22;1272;53.332;9.860;2022-11-15T04:30:35;4.70;99.90
2523;DHT22;1272;53.332;9.860;2022-11-15T04:33:01;4.80;99.90
2523;DHT22;1272;53.332;9.860;2022-11-15T04:35:27;4.80;99.90
2523;DHT22;1272;53.332;9.860;2022-11-15T04:37:54;4.90;99.90
2523;DHT22;1272;53.332;9.860;2022-11-15T04:40:20;4.90;99.90
2523;DHT22;1272;53.332;9.860;2022-11-15T04:42:46;5.00;99.90
2523;DHT22;1272;53.332;9.860;2022-11-15T04:45:11;5.00;99.90
2523;DHT22;1272;53.332;9.860;2022-11-15T04:47:37;5.00;99.90
2523;DHT22;1272;53.332;9.860;2022-11-15T04:50:03;5.10;99.90
2523;DHT22;1272;53.332;9.860;2022-11-15T04:52:29;5.20;99.90
2523;DHT22;1272;53.332;9.860;2022-11-15T04:54:57;5.20;99.90
2523;DHT22;1272;53.332;9.860;2022-11-15T04:57:23;5.30;99.90
2523;DHT22;1272;53.332;9.860;2022-11-15T04:59:49;5.30;99.90
2523;DHT22;1272;53.332;9.860;2022-11-15T05:02:14;5.30;99.90
2523;DHT22;1272;53.332;9.860;2022-11-15T05:04:40;5.30;99.90
2523;DHT22;1272;53.332;9.860;2022-11-15T05:07:06;5.40;99.90
2523;DHT22;1272;53.332;9.860;2022-11-15T05:09:31;5.40;99.90
2523;DHT22;1272;53.332;9.860;2022-11-15T05:11:57;5.40;99.90
2523;DHT22;1272;53.332;9.860;2022-11-15T05:14:23;5.50;99.90
2523;DHT22;1272;53.332;9.860;2022-11-15T05:16:48;5.50;99.90
2523;DHT22;1272;53.332;9.860;2022-11-15T05:19:14;5.60;99.90
2523;DHT22;1272;53.332;9.860;2022-11-15T05:21:40;5.60;99.90
2523;DHT22;1272;53.332;9.860;2022-11-15T05:24:06;5.60;99.90
2523;DHT22;1272;53.332;9.860;2022-11-15T05:26:53;5.60;99.90
2523;DHT22;1272;53.332;9.860;2022-11-15T05:29:18;5.70;99.90
2523;DHT22;1272;53.332;9.860;2022-11-15T05:31:43;5.70;99.90
2523;DHT22;1272;53.332;9.860;2022-11-15T05:34:09;5.70;99.90
2523;DHT22;1272;53.332;9.860;2022-11-15T05:36:42;5.70;99.90
2523;DHT22;1272;53.332;9.860;2022-11-15T05:39:08;5.70;99.90
2523;DHT22;1272;53.332;9.860;2022-11-15T05:41:44;5.80;99.90
2523;DHT22;1272;53.332;9.860;2022-11-15T05:44:13;5.80;99.90
2523;DHT22;1272;53.332;9.860;2022-11-15T05:46:40;5.90;99.90
2523;DHT22;1272;53.332;9.860;2022-11-15T05:49:10;5.90;99.90
2523;DHT22;1272;53.332;9.860;2022-11-15T05:51:37;5.90;99.90
2523;DHT22;1272;53.332;9.860;2022-11-15T05:54:02;5.90;99.90
2523;DHT22;1272;53.332;9.860;2022-11-15T05:56:29;6.00;99.90
2523;DHT22;1272;53.332;9.860;2022-11-15T05:58:56;6.00;99.90
2523;DHT22;1272;53.332;9.860;2022-11-15T06:01:23;6.00;99.90
2523;DHT22;1272;53.332;9.860;2022-11-15T06:03:50;6.10;99.90
2523;DHT22;1272;53.332;9.860;2022-11-15T06:06:15;6.10;99.90
2523;DHT22;1272;53.332;9.860;2022-11-15T06:08:42;6.10;99.90
2523;DHT22;1272;53.332;9.860;2022-11-15T06:11:07;6.10;99.90
2523;DHT22;1272;53.332;9.860;2022-11-15T06:13:34;6.10;99.90
2523;DHT22;1272;53.332;9.860;2022-11-15T06:16:00;6.20;99.90
2523;DHT22;1272;53.332;9.860;2022-11-15T06:18:26;6.20;99.90
2523;DHT22;1272;53.332;9.860;2022-11-15T06:20:52;6.20;99.90
2523;DHT22;1272;53.332;9.860;2022-11-15T06:23:18;6.20;99.90
2523;DHT22;1272;53.332;9.860;2022-11-15T06:25:43;6.30;99.90
2523;DHT22;1272;53.332;9.860;2022-11-15T06:28:12;6.30;99.90
2523;DHT22;1272;53.332;9.860;2022-11-15T06:30:37;6.30;99.90
2523;DHT22;1272;53.332;9.860;2022-11-15T06:33:04;6.40;99.90
2523;DHT22;1272;53.332;9.860;2022-11-15T06:35:32;6.40;99.90
2523;DHT22;1272;53.332;9.860;2022-11-15T06:38:11;6.40;99.90
2523;DHT22;1272;53.332;9.860;2022-11-15T06:40:38;6.40;99.90
2523;DHT22;1272;53.332;9.860;2022-11-15T06:43:05;6.50;99.90
2523;DHT22;1272;53.332;9.860;2022-11-15T06:45:31;6.50;99.90
2523;DHT22;1272;53.332;9.860;2022-11-15T06:47:57;6.50;99.90
2523;DHT22;1272;53.332;9.860;2022-11-15T06:50:23;6.50;99.90
2523;DHT22;1272;53.332;9.860;2022-11-15T06:52:49;6.50;99.90
2523;DHT22;1272;53.332;9.860;2022-11-15T06:55:15;6.60;99.90
2523;DHT22;1272;53.332;9.860;2022-11-15T06:57:51;6.60;99.90
2523;DHT22;1272;53.332;9.860;2022-11-15T07:00:18;6.60;99.90
2523;DHT22;1272;53.332;9.860;2022-11-15T07:02:45;6.60;99.90
2523;DHT22;1272;53.332;9.860;2022-11-15T07:05:11;6.70;99.90
2523;DHT22;1272;53.332;9.860;2022-11-15T07:07:37;6.70;99.90
2523;DHT22;1272;53.332;9.860;2022-11-15T07:10:06;6.70;99.90
2523;DHT22;1272;53.332;9.860;2022-11-15T07:12:32;6.80;99.90
2523;DHT22;1272;53.332;9.860;2022-11-15T07:15:01;6.80;99.90
2523;DHT22;1272;53.332;9.860;2022-11-15T07:17:27;6.80;99.90
2523;DHT22;1272;53.332;9.860;2022-11-15T07:19:53;6.80;99.90
2523;DHT22;1272;53.332;9.860;2022-11-15T07:22:18;6.80;99.90
2523;DHT22;1272;53.332;9.860;2022-11-15T07:24:44;6.90;99.90
2523;DHT22;1272;53.332;9.860;2022-11-15T07:27:09;6.90;99.90
2523;DHT22;1272;53.332;9.860;2022-11-15T07:29:35;6.90;99.90
2523;DHT22;1272;53.332;9.860;2022-11-15T07:32:01;7.00;99.90
2523;DHT22;1272;53.332;9.860;2022-11-15T07:34:26;7.00;99.90
2523;DHT22;1272;53.332;9.860;2022-11-15T07:36:52;7.10;99.90
2523;DHT22;1272;53.332;9.860;2022-11-15T07:39:18;7.10;99.90
2523;DHT22;1272;53.332;9.860;2022-11-15T07:41:43;7.20;99.90
2523;DHT22;1272;53.332;9.860;2022-11-15T07:44:10;7.20;99.90
2523;DHT22;1272;53.332;9.860;2022-11-15T07:46:35;7.30;99.90
2523;DHT22;1272;53.332;9.860;2022-11-15T07:49:01;7.30;99.90
2523;DHT22;1272;53.332;9.860;2022-11-15T07:51:27;7.40;99.90
2523;DHT22;1272;53.332;9.860;2022-11-15T07:53:52;7.40;99.90
2523;DHT22;1272;53.332;9.860;2022-11-15T07:56:18;7.40;99.90
2523;DHT22;1272;53.332;9.860;2022-11-15T07:58:46;7.40;99.90
2523;DHT22;1272;53.332;9.860;2022-11-15T08:01:12;7.50;99.90
2523;DHT22;1272;53.332;9.860;2022-11-15T08:03:38;7.50;99.90
2523;DHT22;1272;53.332;9.860;2022-11-15T08:06:05;7.50;99.90
2523;DHT22;1272;53.332;9.860;2022-11-15T08:08:30;7.60;99.90
2523;DHT22;1272;53.332;9.860;2022-11-15T08:10:59;7.60;99.90
2523;DHT22;1272;53.332;9.860;2022-11-15T08:13:29;7.70;99.90
2523;DHT22;1272;53.332;9.860;2022-11-15T08:16:02;7.80;99.90
2523;DHT22;1272;53.332;9.860;2022-11-15T08:18:28;7.90;99.90
2523;DHT22;1272;53.332;9.860;2022-11-15T08:20:57;7.90;99.90
2523;DHT22;1272;53.332;9.860;2022-11-15T08:23:24;8.00;99.90
2523;DHT22;1272;53.332;9.860;2022-11-15T08:25:49;8.00;99.90
2523;DHT22;1272;53.332;9.860;2022-11-15T08:28:16;8.10;99.90
2523;DHT22;1272;53.332;9.860;2022-11-15T08:30:43;8.20;99.90
2523;DHT22;1272;53.332;9.860;2022-11-15T08:33:12;8.20;99.90
2523;DHT22;1272;53.332;9.860;2022-11-15T08:35:39;8.30;99.90
2523;DHT22;1272;53.332;9.860;2022-11-15T08:38:05;8.40;99.90
2523;DHT22;1272;53.332;9.860;2022-11-15T08:40:31;8.50;99.90
2523;DHT22;1272;53.332;9.860;2022-11-15T08:42:56;8.60;99.90
2523;DHT22;1272;53.332;9.860;2022-11-15T08:45:24;8.70;99.90
2523;DHT22;1272;53.332;9.860;2022-11-15T08:47:50;8.70;99.90
2523;DHT22;1272;53.332;9.860;2022-11-15T08:50:15;8.70;99.90
2523;DHT22;1272;53.332;9.860;2022-11-15T08:52:41;8.80;99.90
2523;DHT22;1272;53.332;9.860;2022-11-15T08:55:07;8.90;99.90
2523;DHT22;1272;53.332;9.860;2022-11-15T08:57:33;8.90;99.90
2523;DHT22;1272;53.332;9.860;2022-11-15T08:59:59;9.00;99.90
2523;DHT22;1272;53.332;9.860;2022-11-15T09:02:24;9.10;99.90
2523;DHT22;1272;53.332;9.860;2022-11-15T09:04:50;9.20;99.90
2523;DHT22;1272;53.332;9.860;2022-11-15T09:07:16;9.30;99.90
2523;DHT22;1272;53.332;9.860;2022-11-15T09:09:42;9.30;99.90
2523;DHT22;1272;53.332;9.860;2022-11-15T09:12:10;9.50;99.90
2523;DHT22;1272;53.332;9.860;2022-11-15T09:14:36;9.60;99.90
2523;DHT22;1272;53.332;9.860;2022-11-15T09:17:02;9.60;99.90
2523;DHT22;1272;53.332;9.860;2022-11-15T09:19:29;9.70;99.90
2523;DHT22;1272;53.332;9.860;2022-11-15T09:21:54;9.70;99.90
2523;DHT22;1272;53.332;9.860;2022-11-15T09:24:20;9.80;99.90
2523;DHT22;1272;53.332;9.860;2022-11-15T09:26:46;9.80;99.90
2523;DHT22;1272;53.332;9.860;2022-11-15T09:29:12;9.80;99.90
2523;DHT22;1272;53.332;9.860;2022-11-15T09:31:37;9.90;99.90
2523;DHT22;1272;53.332;9.860;2022-11-15T09:34:03;10.00;99.90
2523;DHT22;1272;53.332;9.860;2022-11-15T09:36:29;10.00;99.90
2523;DHT22;1272;53.332;9.860;2022-11-15T09:38:54;10.10;99.90
2523;DHT22;1272;53.332;9.860;2022-11-15T09:44:48;10.20;99.90
2523;DHT22;1272;53.332;9.860;2022-11-15T09:50:12;10.30;99.90
2523;DHT22;1272;53.332;9.860;2022-11-15T09:52:42;10.30;99.90
2523;DHT22;1272;53.332;9.860;2022-11-15T09:55:10;10.50;99.90
2523;DHT22;1272;53.332;9.860;2022-11-15T09:57:44;10.50;99.90
2523;DHT22;1272;53.332;9.860;2022-11-15T10:00:32;10.50;99.90
2523;DHT22;1272;53.332;9.860;2022-11-15T10:03:13;10.70;99.90
2523;DHT22;1272;53.332;9.860;2022-11-15T10:05:48;10.80;99.90
2523;DHT22;1272;53.332;9.860;2022-11-15T10:08:37;10.80;99.90
2523;DHT22;1272;53.332;9.860;2022-11-15T10:11:09;10.90;99.90
2523;DHT22;1272;53.332;9.860;2022-11-15T10:13:40;10.90;99.90
2523;DHT22;1272;53.332;9.860;2022-11-15T10:19:11;11.00;99.90
2523;DHT22;1272;53.332;9.860;2022-11-15T10:24:37;11.10;99.90
2523;DHT22;1272;53.332;9.860;2022-11-15T10:27:15;11.20;99.90
2523;DHT22;1272;53.332;9.860;2022-11-15T10:29:46;11.30;99.90
2523;DHT22;1272;53.332;9.860;2022-11-15T10:32:17;11.40;99.90
2523;DHT22;1272;53.332;9.860;2022-11-15T10:34:43;11.50;99.90
2523;DHT22;1272;53.332;9.860;2022-11-15T10:37:09;11.50;99.90
2523;DHT22;1272;53.332;9.860;2022-11-15T10:39:35;11.50;99.90
2523;DHT22;1272;53.332;9.860;2022-11-15T10:42:28;11.50;99.90
2523;DHT22;1272;53.332;9.860;2022-11-15T10:44:54;11.50;99.90
2523;DHT22;1272;53.332;9.860;2022-11-15T10:49:59;11.50;99.90
2523;DHT22;1272;53.332;9.860;2022-11-15T10:52:25;11.50;99.90
2523;DHT22;1272;53.332;9.860;2022-11-15T10:57:52;11.60;99.90
2523;DHT22;1272;53.332;9.860;2022-11-15T11:00:29;11.60;99.90
2523;DHT22;1272;53.332;9.860;2022-11-15T11:02:57;11.60;99.90
2523;DHT22;1272;53.332;9.860;2022-11-15T11:05:32;11.60;99.90
2523;DHT22;1272;53.332;9.860;2022-11-15T11:08:16;11.60;99.90
2523;DHT22;1272;53.332;9.860;2022-11-15T11:10:55;11.70;99.90
2523;DHT22;1272;53.332;9.860;2022-11-15T11:13:30;11.80;99.90
2523;DHT22;1272;53.332;9.860;2022-11-15T11:18:37;11.80;99.90
2523;DHT22;1272;53.332;9.860;2022-11-15T11:21:10;11.90;99.90
2523;DHT22;1272;53.332;9.860;2022-11-15T11:24:06;12.00;99.90
2523;DHT22;1272;53.332;9.860;2022-11-15T11:29:25;12.30;99.90
2523;DHT22;1272;53.332;9.860;2022-11-15T11:37:45;12.70;99.90
2523;DHT22;1272;53.332;9.860;2022-11-15T11:48:42;12.90;99.90
2523;DHT22;1272;53.332;9.860;2022-11-15T11:53:55;13.10;99.90
2523;DHT22;1272;53.332;9.860;2022-11-15T11:56:43;13.20;99.90
2523;DHT22;1272;53.332;9.860;2022-11-15T11:59:36;13.40;99.90
2523;DHT22;1272;53.332;9.860;2022-11-15T12:05:22;13.70;99.90
2523;DHT22;1272;53.332;9.860;2022-11-15T12:07:54;13.70;99.90
2523;DHT22;1272;53.332;9.860;2022-11-15T12:10:29;13.70;99.90
2523;DHT22;1272;53.332;9.860;2022-11-15T12:13:02;13.70;99.90
2523;DHT22;1272;53.332;9.860;2022-11-15T12:18:34;13.70;99.90
2523;DHT22;1272;53.332;9.860;2022-11-15T12:23:50;13.80;99.90
2523;DHT22;1272;53.332;9.860;2022-11-15T12:26:22;13.90;99.90
2523;DHT22;1272;53.332;9.860;2022-11-15T12:28:55;13.90;99.90
2523;DHT22;1272;53.332;9.860;2022-11-15T12:34:13;13.80;99.90
2523;DHT22;1272;53.332;9.860;2022-11-15T12:36:41;13.70;99.90
2523;DHT22;1272;53.332;9.860;2022-11-15T12:39:12;13.70;99.90
2523;DHT22;1272;53.332;9.860;2022-11-15T12:41:40;13.70;99.90
2523;DHT22;1272;53.332;9.860;2022-11-15T12:44:59;13.60;99.90
2523;DHT22;1272;53.332;9.860;2022-11-15T12:47:03;13.60;99.90
2523;DHT22;1272;53.332;9.860;2022-11-15T13:02:26;13.80;99.90
2523;DHT22;1272;53.332;9.860;2022-11-15T13:04:54;13.80;99.90
2523;DHT22;1272;53.332;9.860;2022-11-15T13:17:38;13.90;99.90
2523;DHT22;1272;53.332;9.860;2022-11-15T13:28:43;14.10;99.90
2523;DHT22;1272;53.332;9.860;2022-11-15T13:34:14;14.00;99.90
2523;DHT22;1272;53.332;9.860;2022-11-15T13:36:41;14.00;99.90
2523;DHT22;1272;53.332;9.860;2022-11-15T13:39:34;14.10;99.90
2523;DHT22;1272;53.332;9.860;2022-11-15T13:42:02;14.10;99.90
2523;DHT22;1272;53.332;9.860;2022-11-15T13:44:32;14.00;86.90
2523;DHT22;1272;53.332;9.860;2022-11-15T13:47:19;14.00;91.20
2523;DHT22;1272;53.332;9.860;2022-11-15T13:49:45;14.00;83.40
2523;DHT22;1272;53.332;9.860;2022-11-15T13:52:14;14.00;97.40
2523;DHT22;1272;53.332;9.860;2022-11-15T13:54:48;14.00;99.90
2523;DHT22;1272;53.332;9.860;2022-11-15T13:57:20;14.00;99.90
2523;DHT22;1272;53.332;9.860;2022-11-15T13:59:53;14.00;99.90
2523;DHT22;1272;53.332;9.860;2022-11-15T14:02:25;14.00;99.90
2523;DHT22;1272;53.332;9.860;2022-11-15T14:04:55;13.90;99.90
2523;DHT22;1272;53.332;9.860;2022-11-15T14:07:23;13.80;99.90
2523;DHT22;1272;53.332;9.860;2022-11-15T14:09:49;13.80;99.90
2523;DHT22;1272;53.332;9.860;2022-11-15T14:14:55;13.80;99.90
2523;DHT22;1272;53.332;9.860;2022-11-15T14:17:34;13.70;99.90
2523;DHT22;1272;53.332;9.860;2022-11-15T14:20:00;13.70;99.90
2523;DHT22;1272;53.332;9.860;2022-11-15T14:22:27;13.50;99.90
2523;DHT22;1272;53.332;9.860;2022-11-15T14:27:43;13.40;99.90
2523;DHT22;1272;53.332;9.860;2022-11-15T14:30:17;13.30;99.90
2523;DHT22;1272;53.332;9.860;2022-11-15T14:32:48;13.30;99.90
2523;DHT22;1272;53.332;9.860;2022-11-15T14:35:18;13.20;99.90
2523;DHT22;1272;53.332;9.860;2022-11-15T14:37:45;13.10;99.90
2523;DHT22;1272;53.332;9.860;2022-11-15T14:40:15;13.00;99.90
2523;DHT22;1272;53.332;9.860;2022-11-15T14:42:41;13.00;99.90
2523;DHT22;1272;53.332;9.860;2022-11-15T14:45:13;13.00;99.90
2523;DHT22;1272;53.332;9.860;2022-11-15T14:47:39;13.00;99.90
2523;DHT22;1272;53.332;9.860;2022-11-15T14:50:05;12.90;99.90
2523;DHT22;1272;53.332;9.860;2022-11-15T14:52:32;12.90;99.90
2523;DHT22;1272;53.332;9.860;2022-11-15T14:55:04;12.80;99.90
2523;DHT22;1272;53.332;9.860;2022-11-15T14:57:35;12.80;99.90
2523;DHT22;1272;53.332;9.860;2022-11-15T15:00:01;12.70;99.90
2523;DHT22;1272;53.332;9.860;2022-11-15T15:02:28;12.70;99.90
2523;DHT22;1272;53.332;9.860;2022-11-15T15:04:54;12.60;99.90
2523;DHT22;1272;53.332;9.860;2022-11-15T15:07:19;12.60;99.90
2523;DHT22;1272;53.332;9.860;2022-11-15T15:09:45;12.50;99.90
2523;DHT22;1272;53.332;9.860;2022-11-15T15:12:19;12.50;99.90
2523;DHT22;1272;53.332;9.860;2022-11-15T15:14:47;12.40;99.90
2523;DHT22;1272;53.332;9.860;2022-11-15T15:17:13;12.30;99.90
2523;DHT22;1272;53.332;9.860;2022-11-15T15:19:49;12.20;99.90
2523;DHT22;1272;53.332;9.860;2022-11-15T15:22:19;12.20;99.90
2523;DHT22;1272;53.332;9.860;2022-11-15T15:24:48;12.10;99.90
2523;DHT22;1272;53.332;9.860;2022-11-15T15:27:23;11.90;99.90
2523;DHT22;1272;53.332;9.860;2022-11-15T15:29:48;11.80;99.90
2523;DHT22;1272;53.332;9.860;2022-11-15T15:32:14;11.70;99.90
2523;DHT22;1272;53.332;9.860;2022-11-15T15:34:40;11.40;99.90
2523;DHT22;1272;53.332;9.860;2022-11-15T15:39:48;11.20;99.90
2523;DHT22;1272;53.332;9.860;2022-11-15T15:42:14;11.20;99.90
2523;DHT22;1272;53.332;9.860;2022-11-15T15:44:40;11.10;99.90
2523;DHT22;1272;53.332;9.860;2022-11-15T15:47:16;11.10;99.90
2523;DHT22;1272;53.332;9.860;2022-11-15T15:49:42;11.00;99.90
2523;DHT22;1272;53.332;9.860;2022-11-15T15:52:08;11.00;99.90
2523;DHT22;1272;53.332;9.860;2022-11-15T15:54:34;10.90;99.90
2523;DHT22;1272;53.332;9.860;2022-11-15T15:56:59;10.90;99.90
2523;DHT22;1272;53.332;9.860;2022-11-15T15:59:25;10.90;99.90
2523;DHT22;1272;53.332;9.860;2022-11-15T16:01:51;10.90;99.90
2523;DHT22;1272;53.332;9.860;2022-11-15T16:04:16;11.00;99.90
2523;DHT22;1272;53.332;9.860;2022-11-15T16:06:42;11.10;99.90
2523;DHT22;1272;53.332;9.860;2022-11-15T16:09:14;11.10;99.90
2523;DHT22;1272;53.332;9.860;2022-11-15T16:11:41;11.10;99.90
2523;DHT22;1272;53.332;9.860;2022-11-15T16:14:07;11.10;99.90
2523;DHT22;1272;53.332;9.860;2022-11-15T16:16:34;11.10;99.90
2523;DHT22;1272;53.332;9.860;2022-11-15T16:19:00;11.10;99.90
2523;DHT22;1272;53.332;9.860;2022-11-15T16:21:27;11.00;99.90
2523;DHT22;1272;53.332;9.860;2022-11-15T16:23:53;11.00;99.90
2523;DHT22;1272;53.332;9.860;2022-11-15T16:26:28;11.00;99.90
2523;DHT22;1272;53.332;9.860;2022-11-15T16:28:55;11.00;99.90
2523;DHT22;1272;53.332;9.860;2022-11-15T16:31:21;11.00;99.90
2523;DHT22;1272;53.332;9.860;2022-11-15T16:33:47;11.00;99.90
2523;DHT22;1272;53.332;9.860;2022-11-15T16:36:23;11.00;99.90
2523;DHT22;1272;53.332;9.860;2022-11-15T16:38:50;11.00;99.90
2523;DHT22;1272;53.332;9.860;2022-11-15T16:41:16;11.00;99.90
2523;DHT22;1272;53.332;9.860;2022-11-15T16:43:47;11.00;99.90
2523;DHT22;1272;53.332;9.860;2022-11-15T16:46:24;11.00;99.90
2523;DHT22;1272;53.332;9.860;2022-11-15T16:48:50;11.00;99.90
2523;DHT22;1272;53.332;9.860;2022-11-15T16:51:16;11.00;99.90
2523;DHT22;1272;53.332;9.860;2022-11-15T16:53:42;10.90;99.90
2523;DHT22;1272;53.332;9.860;2022-11-15T16:56:38;11.00;99.90
2523;DHT22;1272;53.332;9.860;2022-11-15T16:59:04;11.00;99.90
2523;DHT22;1272;53.332;9.860;2022-11-15T17:01:35;10.90;99.90
2523;DHT22;1272;53.332;9.860;2022-11-15T17:04:04;10.90;99.90
2523;DHT22;1272;53.332;9.860;2022-11-15T17:06:42;10.90;99.90
2523;DHT22;1272;53.332;9.860;2022-11-15T17:09:19;10.80;99.90
2523;DHT22;1272;53.332;9.860;2022-11-15T17:11:45;10.80;99.90
2523;DHT22;1272;53.332;9.860;2022-11-15T17:14:11;10.80;99.90
2523;DHT22;1272;53.332;9.860;2022-11-15T17:16:38;10.80;99.90
2523;DHT22;1272;53.332;9.860;2022-11-15T17:19:17;10.80;99.90
2523;DHT22;1272;53.332;9.860;2022-11-15T17:21:44;10.70;99.90
2523;DHT22;1272;53.332;9.860;2022-11-15T17:24:10;10.70;99.90
2523;DHT22;1272;53.332;9.860;2022-11-15T17:26:37;10.60;99.90
2523;DHT22;1272;53.332;9.860;2022-11-15T17:29:03;10.60;99.90
2523;DHT22;1272;53.332;9.860;2022-11-15T17:31:33;10.50;99.90
2523;DHT22;1272;53.332;9.860;2022-11-15T17:34:23;10.50;99.90
2523;DHT22;1272;53.332;9.860;2022-11-15T17:36:48;10.40;99.90
2523;DHT22;1272;53.332;9.860;2022-11-15T17:39:17;10.40;99.90
2523;DHT22;1272;53.332;9.860;2022-11-15T17:41:47;10.30;99.90
2523;DHT22;1272;53.332;9.860;2022-11-15T17:44:13;10.20;99.90
2523;DHT22;1272;53.332;9.860;2022-11-15T17:46:39;10.20;99.90
2523;DHT22;1272;53.332;9.860;2022-11-15T17:49:05;10.10;99.90
2523;DHT22;1272;53.332;9.860;2022-11-15T17:51:36;10.10;99.90
2523;DHT22;1272;53.332;9.860;2022-11-15T17:54:02;10.00;99.90
2523;DHT22;1272;53.332;9.860;2022-11-15T17:56:28;10.00;99.90
2523;DHT22;1272;53.332;9.860;2022-11-15T17:59:24;10.00;99.90
2523;DHT22;1272;53.332;9.860;2022-11-15T18:01:54;10.00;99.90
2523;DHT22;1272;53.332;9.860;2022-11-15T18:04:20;10.10;99.90
2523;DHT22;1272;53.332;9.860;2022-11-15T18:06:51;10.10;99.90
2523;DHT22;1272;53.332;9.860;2022-11-15T18:09:20;10.10;99.90
2523;DHT22;1272;53.332;9.860;2022-11-15T18:11:46;10.00;99.90
2523;DHT22;1272;53.332;9.860;2022-11-15T18:14:16;10.00;99.90
2523;DHT22;1272;53.332;9.860;2022-11-15T18:16:42;9.90;99.90
2523;DHT22;1272;53.332;9.860;2022-11-15T18:19:09;9.90;99.90
2523;DHT22;1272;53.332;9.860;2022-11-15T18:21:38;9.90;99.90
2523;DHT22;1272;53.332;9.860;2022-11-15T18:24:33;9.90;99.90